Time;durP1;ratioP1;P1;durP2;ratioP2;P2;SDS_P1;SDS_P2;PMS_P1;PMS_P2;Temp;Humidity;BMP_temperature;BMP_pressure;BME280_temperature;BME280_humidity;BME280_pressure;Samples;Min_cycle;Max_cycle;Signal;HPM_P1;HPM_P2
2021/08/22 00:01:08;;;;;;;58.77;3.37;;;18.80;1.00;;;;;;5071956;28;20919;-70
2021/08/22 00:03:35;;;;;;;58.70;3.37;;;18.80;1.00;;;;;;5071848;28;20463;-70
2021/08/22 00:06:02;;;;;;;60.17;4.50;;;18.90;1.00;;;;;;5072021;28;20447;-70
2021/08/22 00:08:29;;;;;;;59.17;3.90;;;18.90;1.00;;;;;;5072050;28;20457;-70
2021/08/22 00:10:56;;;;;;;58.43;2.90;;;19.00;1.00;;;;;;5071824;28;20443;-70
2021/08/22 00:13:23;;;;;;;58.80;3.37;;;19.00;1.00;;;;;;5071799;28;20471;-70
2021/08/22 00:15:51;;;;;;;58.50;2.90;;;19.00;1.00;;;;;;5071758;28;20455;-70
2021/08/22 00:18:18;;;;;;;58.17;2.90;;;19.00;1.00;;;;;;5072061;28;20527;-70
2021/08/22 00:20:45;;;;;;;58.50;3.10;;;18.90;1.00;;;;;;5071674;28;21014;-70
2021/08/22 00:23:14;;;;;;;58.10;3.13;;;19.00;1.00;;;;;;5071807;28;20550;-70
2021/08/22 00:25:40;;;;;;;60.07;3.83;;;19.00;1.00;;;;;;5071161;28;20493;-70
2021/08/22 00:28:07;;;;;;;58.47;3.60;;;19.00;1.00;;;;;;5071987;28;20870;-70
2021/08/22 00:33:57;;;;;;;58.80;4.43;;;19.10;1.00;;;;;;5070078;28;20491;-71
2021/08/22 00:40:01;;;;;;;58.87;3.20;;;18.80;1.00;;;;;;5071707;28;20394;-71
2021/08/22 00:42:32;;;;;;;58.17;2.70;;;18.20;1.00;;;;;;5069840;28;20593;-70
2021/08/22 00:44:59;;;;;;;58.47;3.10;;;17.80;1.00;;;;;;5071449;28;20454;-69
2021/08/22 00:47:27;;;;;;;58.40;2.80;;;17.40;1.00;;;;;;5071508;28;20446;-71
2021/08/22 00:49:55;;;;;;;58.27;2.80;;;17.10;1.00;;;;;;5071155;28;20450;-70
2021/08/22 00:52:22;;;;;;;58.67;2.90;;;17.00;1.00;;;;;;5071254;28;20470;-69
2021/08/22 00:54:49;;;;;;;58.80;2.83;;;16.80;1.00;;;;;;5071361;28;20446;-70
2021/08/22 00:57:16;;;;;;;58.47;2.80;;;16.80;1.00;;;;;;5071263;28;20946;-70
2021/08/22 00:59:43;;;;;;;59.60;3.67;;;16.70;1.00;;;;;;5071024;28;20972;-70
2021/08/22 01:02:17;;;;;;;60.27;3.00;;;16.70;1.00;;;;;;5071302;28;20875;-69
2021/08/22 01:04:51;;;;;;;58.53;2.80;;;16.70;5.10;;;;;;5071221;28;20930;-69
2021/08/22 01:07:25;;;;;;;58.57;2.60;;;16.70;11.70;;;;;;5071187;28;20459;-70
2021/08/22 01:09:53;;;;;;;58.60;2.60;;;16.70;15.70;;;;;;5070947;28;20460;-70
2021/08/22 01:12:26;;;;;;;58.07;2.60;;;16.70;21.90;;;;;;5071454;28;20553;-70
2021/08/22 01:14:57;;;;;;;58.43;2.80;;;16.60;29.60;;;;;;5071601;28;20452;-70
2021/08/22 01:17:29;;;;;;;58.47;2.70;;;16.60;35.00;;;;;;5071238;28;20946;-70
2021/08/22 01:20:06;;;;;;;58.47;2.50;;;16.60;40.20;;;;;;5071020;28;20450;-70
2021/08/22 01:22:37;;;;;;;58.00;2.47;;;16.60;44.60;;;;;;5071211;28;20496;-70
2021/08/22 01:25:08;;;;;;;59.10;3.10;;;16.60;45.80;;;;;;5071115;28;20816;-70
2021/08/22 01:27:36;;;;;;;58.60;2.80;;;16.60;50.40;;;;;;5069202;28;20453;-70
2021/08/22 01:30:06;;;;;;;58.43;2.90;;;16.50;54.50;;;;;;5070930;28;21021;-69
2021/08/22 01:32:37;;;;;;;58.30;2.57;;;16.50;57.40;;;;;;5070912;28;20500;-69
2021/08/22 01:35:04;;;;;;;58.23;2.70;;;16.50;60.50;;;;;;5071006;28;20524;-69
2021/08/22 01:37:32;;;;;;;58.57;2.80;;;16.50;63.70;;;;;;5073516;28;20447;-69
2021/08/22 01:39:59;;;;;;;58.63;2.77;;;16.50;68.70;;;;;;5074548;28;20441;-69
2021/08/22 01:42:27;;;;;;;58.53;2.80;;;16.50;74.00;;;;;;5074447;28;20588;-69
2021/08/22 01:44:54;;;;;;;58.17;3.30;;;16.50;76.50;;;;;;5074359;28;20450;-69
2021/08/22 01:47:22;;;;;;;58.03;2.80;;;16.50;79.60;;;;;;5074403;28;20446;-69
2021/08/22 01:49:50;;;;;;;58.37;2.57;;;16.50;81.10;;;;;;5074022;28;20451;-69
2021/08/22 01:52:17;;;;;;;58.53;2.80;;;16.50;82.50;;;;;;5074406;28;20463;-69
2021/08/22 01:54:44;;;;;;;58.37;2.73;;;16.40;83.80;;;;;;5074355;28;20456;-70
2021/08/22 01:57:11;;;;;;;58.40;2.80;;;16.40;85.10;;;;;;5074140;28;20538;-69
2021/08/22 01:59:38;;;;;;;58.53;2.50;;;16.30;86.20;;;;;;5073901;28;20453;-70
2021/08/22 02:02:06;;;;;;;58.03;2.40;;;16.30;87.20;;;;;;5073913;28;20573;-69
2021/08/22 02:04:40;;;;;;;59.10;3.07;;;16.20;88.10;;;;;;5074101;28;20581;-70
2021/08/22 02:07:13;;;;;;;58.17;2.50;;;16.20;89.70;;;;;;5074263;28;20468;-69
2021/08/22 02:09:46;;;;;;;58.17;2.60;;;16.30;90.60;;;;;;5074046;28;20539;-70
2021/08/22 02:12:17;;;;;;;58.33;2.67;;;16.30;91.30;;;;;;5074040;28;20462;-70
2021/08/22 02:14:49;;;;;;;58.27;2.50;;;16.40;91.60;;;;;;5073854;28;20536;-70
2021/08/22 02:17:18;;;;;;;58.10;2.60;;;16.40;91.90;;;;;;5073952;28;20449;-70
2021/08/22 02:19:45;;;;;;;58.17;2.83;;;16.40;92.40;;;;;;5073721;28;20445;-69
2021/08/22 02:22:14;;;;;;;57.97;2.60;;;16.40;92.60;;;;;;5073755;28;20503;-70
2021/08/22 02:24:41;;;;;;;57.87;2.70;;;16.40;93.00;;;;;;5073833;28;20451;-70
2021/08/22 02:27:08;;;;;;;58.50;2.50;;;16.50;93.30;;;;;;5073621;28;20532;-70
2021/08/22 02:29:46;;;;;;;58.30;2.80;;;16.50;93.60;;;;;;5073387;28;20449;-70
2021/08/22 02:32:13;;;;;;;58.37;2.70;;;16.50;94.10;;;;;;5073691;28;20473;-68
2021/08/22 02:34:40;;;;;;;58.17;2.70;;;16.50;94.50;;;;;;5073801;28;20540;-69
2021/08/22 02:37:07;;;;;;;58.33;3.00;;;16.40;94.60;;;;;;5073537;28;20484;-70
2021/08/22 02:39:36;;;;;;;58.17;2.70;;;16.40;94.80;;;;;;5073094;28;20445;-70
2021/08/22 02:42:03;;;;;;;58.43;3.00;;;16.40;95.10;;;;;;5073166;28;21007;-70
2021/08/22 02:44:30;;;;;;;58.27;2.77;;;16.40;95.60;;;;;;5073485;28;20532;-69
2021/08/22 02:46:57;;;;;;;59.20;3.00;;;16.40;95.70;;;;;;5073117;28;20472;-70
2021/08/22 02:49:24;;;;;;;57.77;2.70;;;16.40;96.00;;;;;;5073170;28;20840;-70
2021/08/22 02:51:51;;;;;;;58.17;2.77;;;16.40;96.50;;;;;;5073172;28;21063;-70
2021/08/22 02:54:18;;;;;;;58.20;2.47;;;16.40;96.60;;;;;;5073597;28;20540;-70
2021/08/22 02:56:46;;;;;;;58.27;2.83;;;16.40;96.90;;;;;;5073009;28;21025;-70
2021/08/22 02:59:13;;;;;;;58.33;2.60;;;16.30;97.20;;;;;;5072853;28;20933;-70
2021/08/22 03:01:40;;;;;;;58.33;2.80;;;16.30;97.50;;;;;;5073034;28;20552;-70
2021/08/22 03:04:06;;;;;;;58.37;2.67;;;16.30;97.70;;;;;;5072875;28;20556;-70
2021/08/22 03:06:33;;;;;;;58.60;2.80;;;16.30;97.80;;;;;;5072818;28;20460;-69
2021/08/22 03:09:02;;;;;;;58.10;2.57;;;16.30;98.20;;;;;;5072952;28;20686;-70
2021/08/22 03:11:29;;;;;;;57.97;2.70;;;16.30;98.20;;;;;;5072838;28;20475;-70
2021/08/22 03:13:57;;;;;;;58.57;2.77;;;16.30;98.50;;;;;;5072882;28;20537;-70
2021/08/22 03:16:24;;;;;;;58.27;2.70;;;16.30;98.60;;;;;;5072914;28;20456;-70
2021/08/22 03:18:51;;;;;;;58.37;2.90;;;16.30;98.80;;;;;;5072623;28;20480;-69
2021/08/22 03:21:18;;;;;;;58.27;2.80;;;16.20;99.00;;;;;;5072267;28;20540;-70
2021/08/22 03:23:45;;;;;;;59.47;4.00;;;16.20;99.40;;;;;;5072619;28;21023;-69
2021/08/22 03:26:12;;;;;;;58.17;2.50;;;16.20;99.50;;;;;;5072828;28;20813;-71
2021/08/22 03:28:39;;;;;;;58.17;2.70;;;16.30;99.80;;;;;;5072632;28;20448;-69
2021/08/22 03:31:07;;;;;;;58.50;3.20;;;16.30;99.90;;;;;;5072047;28;20537;-70
2021/08/22 03:33:34;;;;;;;58.70;3.13;;;16.40;99.90;;;;;;5072370;28;20532;-70
2021/08/22 03:36:01;;;;;;;58.40;2.80;;;16.40;99.90;;;;;;5072172;28;20455;-69
2021/08/22 03:38:28;;;;;;;58.30;2.77;;;16.30;99.90;;;;;;5072580;28;20473;-70
2021/08/22 03:40:55;;;;;;;58.40;2.90;;;16.40;99.90;;;;;;5072155;28;20525;-70
2021/08/22 03:43:21;;;;;;;58.20;2.87;;;16.40;99.90;;;;;;5072205;28;20588;-69
2021/08/22 03:45:48;;;;;;;58.27;2.60;;;16.40;99.90;;;;;;5072151;28;20478;-69
2021/08/22 03:48:16;;;;;;;60.10;2.70;;;16.40;99.90;;;;;;5072252;28;20510;-70
2021/08/22 03:50:43;;;;;;;58.07;2.50;;;16.40;99.90;;;;;;5071802;28;20830;-69
2021/08/22 03:53:10;;;;;;;58.27;2.50;;;16.40;99.90;;;;;;5072132;28;20460;-70
2021/08/22 03:55:37;;;;;;;58.30;2.60;;;16.40;99.90;;;;;;5072157;28;20452;-70
2021/08/22 03:58:04;;;;;;;57.73;2.50;;;16.40;99.90;;;;;;5071918;28;20533;-69
2021/08/22 04:00:31;;;;;;;58.07;2.40;;;16.40;99.90;;;;;;5071484;28;20449;-70
2021/08/22 04:02:58;;;;;;;58.03;2.57;;;16.40;99.90;;;;;;5071628;28;21003;-70
2021/08/22 04:05:26;;;;;;;58.60;3.10;;;16.40;99.90;;;;;;5072228;28;20526;-70
2021/08/22 04:07:55;;;;;;;58.20;2.67;;;16.50;99.90;;;;;;5072047;28;20489;-70
2021/08/22 04:10:25;;;;;;;58.43;2.50;;;16.50;99.90;;;;;;5071869;28;20699;-70
2021/08/22 04:12:52;;;;;;;58.10;2.57;;;16.50;99.90;;;;;;5072084;28;20466;-68
2021/08/22 04:15:19;;;;;;;57.97;2.50;;;16.50;99.90;;;;;;5071865;28;20452;-69
2021/08/22 04:17:46;;;;;;;58.50;2.60;;;16.50;99.90;;;;;;5071656;28;20533;-70
2021/08/22 04:20:13;;;;;;;58.03;2.80;;;16.60;99.90;;;;;;5071503;28;20536;-69
2021/08/22 04:22:42;;;;;;;58.00;2.50;;;16.60;99.90;;;;;;5071631;28;20485;-70
2021/08/22 04:25:11;;;;;;;58.33;2.70;;;16.50;99.90;;;;;;5071959;28;20536;-69
2021/08/22 04:27:40;;;;;;;58.17;2.80;;;16.50;99.90;;;;;;5071818;28;21004;-70
2021/08/22 04:30:08;;;;;;;58.47;2.73;;;16.50;99.90;;;;;;5071738;28;20454;-69
2021/08/22 04:32:35;;;;;;;58.27;2.43;;;16.50;99.90;;;;;;5071556;28;20480;-70
2021/08/22 04:35:01;;;;;;;57.87;2.73;;;16.50;99.90;;;;;;5071919;28;20842;-70
2021/08/22 04:37:29;;;;;;;58.30;2.50;;;16.50;99.90;;;;;;5071624;28;20453;-70
2021/08/22 04:39:58;;;;;;;58.37;2.80;;;16.50;99.90;;;;;;5071396;28;20449;-70
2021/08/22 04:42:25;;;;;;;58.17;2.53;;;16.50;99.90;;;;;;5071425;28;20482;-70
2021/08/22 04:44:52;;;;;;;58.37;2.60;;;16.50;99.90;;;;;;5071546;28;20472;-70
2021/08/22 04:47:19;;;;;;;58.07;2.90;;;16.50;99.90;;;;;;5071690;28;20445;-69
2021/08/22 04:49:46;;;;;;;58.30;2.40;;;16.50;99.90;;;;;;5071372;28;20454;-70
2021/08/22 04:52:12;;;;;;;58.30;2.53;;;16.50;99.90;;;;;;5071370;28;20986;-70
2021/08/22 04:54:39;;;;;;;58.10;2.50;;;16.50;99.90;;;;;;5071438;28;20493;-70
2021/08/22 04:57:07;;;;;;;58.17;2.70;;;16.60;99.90;;;;;;5071290;28;20534;-70
2021/08/22 04:59:34;;;;;;;58.07;2.50;;;16.60;99.90;;;;;;5070989;28;20447;-70
2021/08/22 05:02:01;;;;;;;57.97;2.57;;;16.60;99.90;;;;;;5071325;28;20482;-70
2021/08/22 05:04:29;;;;;;;58.20;2.70;;;16.70;99.90;;;;;;5071293;28;20890;-70
2021/08/22 05:06:56;;;;;;;58.37;3.00;;;16.70;99.90;;;;;;5071459;28;20445;-70
2021/08/22 05:09:23;;;;;;;58.27;3.00;;;16.70;99.90;;;;;;5071026;28;20548;-70
2021/08/22 05:11:50;;;;;;;59.27;3.10;;;16.80;99.90;;;;;;5074484;28;20502;-69
2021/08/22 05:14:18;;;;;;;58.30;2.90;;;16.80;99.90;;;;;;5075190;28;20442;-70
2021/08/22 05:16:45;;;;;;;58.07;2.60;;;16.80;99.90;;;;;;5074881;28;20946;-70
2021/08/22 05:19:11;;;;;;;58.03;2.60;;;16.80;99.90;;;;;;5074648;28;20758;-70
2021/08/22 05:21:38;;;;;;;57.93;2.70;;;16.90;99.90;;;;;;5074826;28;20553;-70
2021/08/22 05:24:06;;;;;;;58.07;2.87;;;16.90;99.90;;;;;;5074851;28;20498;-70
2021/08/22 05:26:32;;;;;;;58.20;2.90;;;16.90;99.90;;;;;;5074622;28;20489;-70
2021/08/22 05:28:59;;;;;;;58.13;2.80;;;16.80;99.90;;;;;;5075061;28;20777;-70
2021/08/22 05:31:27;;;;;;;58.00;2.43;;;16.80;99.90;;;;;;5074613;28;20505;-69
2021/08/22 05:33:54;;;;;;;58.17;3.03;;;16.80;99.90;;;;;;5074797;28;20509;-69
2021/08/22 05:36:23;;;;;;;58.03;2.50;;;16.80;99.90;;;;;;5074999;28;20489;-70
2021/08/22 05:38:52;;;;;;;58.50;2.83;;;16.80;99.90;;;;;;5074550;28;20483;-70
2021/08/22 05:41:19;;;;;;;58.33;2.90;;;16.80;99.90;;;;;;5074456;28;20504;-70
2021/08/22 05:43:46;;;;;;;57.83;2.60;;;16.80;99.90;;;;;;5074691;28;20485;-69
2021/08/22 05:46:13;;;;;;;58.13;2.60;;;16.80;99.90;;;;;;5074569;28;20454;-69
2021/08/22 05:48:41;;;;;;;58.17;2.70;;;16.80;99.90;;;;;;5074588;28;20450;-69
2021/08/22 05:51:14;;;;;;;57.97;2.43;;;16.90;99.90;;;;;;5074222;28;20454;-69
2021/08/22 05:53:41;;;;;;;58.30;3.27;;;16.90;99.90;;;;;;5074405;28;20953;-70
2021/08/22 05:56:08;;;;;;;58.13;3.23;;;16.90;99.90;;;;;;5074585;28;20942;-70
2021/08/22 05:58:35;;;;;;;57.63;2.50;;;16.90;99.90;;;;;;5074397;28;20507;-69
2021/08/22 06:01:02;;;;;;;59.97;3.40;;;16.90;99.90;;;;;;5074149;28;20468;-70
2021/08/22 06:03:30;;;;;;;57.77;2.40;;;17.00;99.90;;;;;;5074106;28;20493;-70
2021/08/22 06:05:58;;;;;;;57.97;2.70;;;17.00;99.90;;;;;;5074252;28;20537;-70
2021/08/22 06:08:25;;;;;;;57.87;2.40;;;17.10;99.90;;;;;;5074103;28;20955;-69
2021/08/22 06:10:52;;;;;;;58.13;2.83;;;17.20;99.90;;;;;;5074055;28;20536;-69
2021/08/22 06:13:19;;;;;;;58.00;2.30;;;17.30;99.90;;;;;;5074025;28;20563;-71
2021/08/22 06:15:45;;;;;;;57.47;2.40;;;17.50;99.90;;;;;;5073911;28;20543;-70
2021/08/22 06:18:12;;;;;;;57.87;2.70;;;17.60;99.90;;;;;;5073863;28;20542;-70
2021/08/22 06:20:39;;;;;;;57.90;2.40;;;17.80;99.90;;;;;;5073617;28;20683;-70
2021/08/22 06:23:07;;;;;;;58.27;2.77;;;17.90;99.90;;;;;;5073181;28;20910;-70
2021/08/22 06:25:34;;;;;;;58.10;2.70;;;17.90;99.90;;;;;;5073739;28;20967;-70
2021/08/22 06:28:01;;;;;;;57.90;2.43;;;18.00;99.90;;;;;;5073807;28;20489;-70
2021/08/22 06:30:28;;;;;;;57.80;2.60;;;18.10;99.90;;;;;;5073502;28;20527;-69
2021/08/22 06:32:54;;;;;;;58.37;3.00;;;18.30;99.90;;;;;;5073555;28;20545;-70
2021/08/22 06:35:21;;;;;;;57.83;2.67;;;18.40;99.90;;;;;;5073538;28;20553;-70
2021/08/22 06:37:49;;;;;;;57.73;2.50;;;18.50;99.90;;;;;;5073838;28;20882;-69
2021/08/22 06:40:17;;;;;;;58.13;2.60;;;18.60;99.90;;;;;;5073246;28;20450;-69
2021/08/22 06:42:44;;;;;;;57.63;2.80;;;18.60;99.90;;;;;;5073215;28;20561;-70
2021/08/22 06:45:11;;;;;;;58.27;2.80;;;18.70;99.90;;;;;;5073443;28;20448;-70
2021/08/22 06:47:38;;;;;;;58.40;3.00;;;18.70;99.90;;;;;;5073194;28;20457;-69
2021/08/22 06:50:06;;;;;;;58.50;2.70;;;18.80;99.90;;;;;;5073270;28;20894;-70
2021/08/22 06:52:32;;;;;;;58.10;2.50;;;18.90;99.90;;;;;;5073296;28;20463;-70
2021/08/22 06:54:59;;;;;;;58.70;2.83;;;18.90;99.90;;;;;;5073427;28;20466;-71
2021/08/22 06:57:27;;;;;;;58.13;2.50;;;19.10;99.90;;;;;;5073282;28;20448;-69
2021/08/22 06:59:54;;;;;;;58.07;2.60;;;19.20;99.90;;;;;;5073042;28;20458;-69
2021/08/22 07:02:21;;;;;;;57.87;2.70;;;19.20;99.90;;;;;;5073092;28;20902;-70
2021/08/22 07:04:48;;;;;;;58.20;2.57;;;19.20;99.90;;;;;;5072919;28;20490;-70
2021/08/22 07:07:15;;;;;;;57.87;2.70;;;19.10;99.90;;;;;;5073057;28;20452;-70
2021/08/22 07:09:42;;;;;;;58.07;2.60;;;19.10;99.90;;;;;;5072763;28;20539;-71
2021/08/22 07:12:09;;;;;;;58.20;2.70;;;19.10;99.90;;;;;;5072990;28;20471;-71
2021/08/22 07:14:38;;;;;;;58.27;3.03;;;19.10;99.90;;;;;;5072778;28;20447;-72
2021/08/22 07:17:05;;;;;;;58.40;2.60;;;19.10;99.90;;;;;;5072709;28;20447;-72
2021/08/22 07:19:32;;;;;;;57.90;2.50;;;19.10;99.40;;;;;;5072520;28;20488;-71
2021/08/22 07:21:58;;;;;;;57.97;2.63;;;19.10;99.10;;;;;;5072793;28;20542;-72
2021/08/22 07:24:25;;;;;;;57.77;2.70;;;19.20;99.40;;;;;;5072785;28;20487;-72
2021/08/22 07:26:52;;;;;;;58.30;2.60;;;19.20;98.20;;;;;;5072538;28;20447;-72
2021/08/22 07:29:19;;;;;;;58.17;2.60;;;19.30;98.10;;;;;;5072256;28;20478;-71
2021/08/22 07:31:47;;;;;;;59.33;2.80;;;19.40;97.50;;;;;;5072437;28;20505;-72
2021/08/22 07:34:14;;;;;;;59.20;2.83;;;19.50;95.90;;;;;;5071731;28;20446;-71
2021/08/22 07:36:41;;;;;;;57.87;2.70;;;19.70;94.60;;;;;;5072478;28;20447;-72
2021/08/22 07:39:08;;;;;;;57.90;2.70;;;19.80;96.00;;;;;;5071998;28;20546;-72
2021/08/22 07:41:35;;;;;;;57.73;2.40;;;19.90;95.60;;;;;;5072317;28;20500;-72
2021/08/22 07:44:01;;;;;;;58.30;2.77;;;20.00;96.30;;;;;;5072100;28;20939;-71
2021/08/22 07:46:28;;;;;;;60.27;2.90;;;20.00;97.60;;;;;;5072612;28;20544;-72
2021/08/22 07:48:56;;;;;;;57.97;2.47;;;20.10;96.50;;;;;;5072078;28;20449;-72
2021/08/22 07:51:23;;;;;;;57.87;2.50;;;20.30;97.50;;;;;;5072055;28;20466;-72
2021/08/22 07:53:50;;;;;;;58.00;2.80;;;20.40;97.80;;;;;;5072195;28;20496;-72
2021/08/22 07:56:17;;;;;;;58.00;2.87;;;20.50;96.50;;;;;;5072192;28;20533;-72
2021/08/22 07:58:44;;;;;;;58.37;2.70;;;20.60;96.30;;;;;;5071926;28;20482;-72
2021/08/22 08:01:11;;;;;;;58.80;2.77;;;20.60;83.90;;;;;;5071903;28;20828;-73
2021/08/22 08:03:38;;;;;;;57.97;2.43;;;20.70;83.30;;;;;;5072218;28;20488;-72
2021/08/22 08:06:06;;;;;;;58.20;2.40;;;20.80;83.20;;;;;;5072130;28;20541;-72
2021/08/22 08:08:35;;;;;;;57.97;2.53;;;20.90;35.50;;;;;;5072137;28;20454;-72
2021/08/22 08:11:03;;;;;;;58.27;3.10;;;21.00;27.10;;;;;;5071735;28;20455;-73
2021/08/22 08:13:30;;;;;;;58.00;2.80;;;21.10;36.30;;;;;;5072410;28;20441;-72
2021/08/22 08:15:57;;;;;;;57.77;2.40;;;21.30;7.00;;;;;;5071911;28;20486;-72
2021/08/22 08:18:24;;;;;;;58.17;2.80;;;21.60;1.00;;;;;;5072105;28;20825;-72
2021/08/22 08:20:50;;;;;;;57.97;2.60;;;21.70;1.00;;;;;;5071600;28;20489;-68
2021/08/22 08:23:19;;;;;;;58.17;2.80;;;21.80;1.00;;;;;;5071721;28;20513;-70
2021/08/22 08:25:45;;;;;;;58.03;2.60;;;21.70;1.00;;;;;;5071742;28;20483;-70
2021/08/22 08:28:12;;;;;;;58.57;3.00;;;21.70;1.00;;;;;;5072005;28;20483;-70
2021/08/22 08:30:39;;;;;;;58.40;2.63;;;21.80;1.00;;;;;;5071790;28;20447;-69
2021/08/22 08:33:06;;;;;;;58.17;2.93;;;22.00;1.00;;;;;;5072044;28;20554;-70
2021/08/22 08:35:33;;;;;;;58.07;2.50;;;22.00;1.00;;;;;;5071869;28;20474;-68
2021/08/22 08:38:00;;;;;;;58.50;2.70;;;21.90;1.00;;;;;;5071655;28;20447;-70
2021/08/22 08:40:28;;;;;;;57.77;2.50;;;21.80;1.00;;;;;;5071469;28;20479;-70
2021/08/22 08:42:55;;;;;;;58.20;2.70;;;21.60;1.00;;;;;;5071631;28;20987;-69
2021/08/22 08:45:26;;;;;;;59.47;3.10;;;21.70;1.00;;;;;;5072891;28;20581;-69
2021/08/22 08:47:54;;;;;;;58.47;2.70;;;21.70;1.00;;;;;;5075664;28;20965;-69
2021/08/22 08:50:25;;;;;;;58.10;2.60;;;21.90;1.00;;;;;;5075700;28;20450;-71
2021/08/22 08:52:56;;;;;;;58.03;2.50;;;22.00;1.00;;;;;;5075833;28;20466;-71
2021/08/22 08:55:25;;;;;;;57.93;2.60;;;22.20;1.00;;;;;;5075715;28;20447;-70
2021/08/22 08:57:55;;;;;;;58.60;2.80;;;22.30;1.00;;;;;;5075807;28;20820;-70
2021/08/22 09:00:23;;;;;;;58.90;3.30;;;22.30;1.00;;;;;;5075130;28;21011;-70
2021/08/22 09:02:50;;;;;;;58.27;2.60;;;22.30;1.00;;;;;;5075296;28;20470;-70
2021/08/22 09:05:37;;;;;;;58.33;2.80;;;22.30;1.00;;;;;;5075191;28;20571;-70
2021/08/22 09:08:41;;;;;;;59.07;2.60;;;22.20;1.00;;;;;;5044051;28;20443;-69
2021/08/22 09:11:48;;;;;;;58.40;2.70;;;22.10;1.00;;;;;;5075108;28;20532;-69
2021/08/22 09:15:03;;;;;;;57.37;2.50;;;22.20;1.00;;;;;;5075129;28;20815;-70
2021/08/22 09:18:07;;;;;;;58.17;2.60;;;22.20;1.00;;;;;;5074984;28;20439;-70
2021/08/22 09:21:10;;;;;;;58.50;2.83;;;22.20;1.00;;;;;;5074954;28;20466;-70
2021/08/22 09:24:14;;;;;;;58.40;2.87;;;22.00;1.00;;;;;;5074718;28;20537;-69
2021/08/22 09:27:16;;;;;;;58.07;2.50;;;21.90;1.00;;;;;;5074960;28;20450;-70
2021/08/22 09:30:16;;;;;;;57.70;2.37;;;21.70;1.00;;;;;;5074751;28;20446;-69
2021/08/22 09:33:20;;;;;;;57.73;2.40;;;21.60;1.00;;;;;;5074973;28;20554;-70
2021/08/22 09:36:24;;;;;;;58.33;2.93;;;21.50;1.00;;;;;;5074701;28;20476;-69
2021/08/22 09:39:35;;;;;;;58.23;2.57;;;21.50;1.00;;;;;;5074876;28;20451;-70
2021/08/22 09:42:40;;;;;;;58.17;2.60;;;21.40;1.00;;;;;;5074430;28;20513;-70
2021/08/22 09:45:44;;;;;;;57.43;2.50;;;21.40;1.00;;;;;;5074647;28;20593;-69
2021/08/22 09:48:59;;;;;;;57.57;2.60;;;21.30;1.00;;;;;;5074501;28;20457;-69
2021/08/22 09:52:14;;;;;;;57.87;2.60;;;21.30;1.00;;;;;;5012071;28;20474;-70
2021/08/22 09:55:23;;;;;;;57.87;2.57;;;21.20;1.00;;;;;;5012569;28;20449;-69
2021/08/22 09:58:35;;;;;;;58.13;2.67;;;21.20;1.00;;;;;;5073360;28;20442;-69
2021/08/22 10:01:46;;;;;;;58.50;2.90;;;21.10;1.00;;;;;;5073906;28;20456;-70
2021/08/22 10:04:43;;;;;;;57.37;2.30;;;21.00;1.00;;;;;;5074057;28;20516;-69
2021/08/22 10:07:41;;;;;;;58.90;3.00;;;20.90;1.00;;;;;;5073998;28;20964;-70
2021/08/22 10:10:12;;;;;;;58.93;2.47;;;20.80;1.00;;;;;;5073814;28;20815;-70
2021/08/22 10:12:39;;;;;;;58.70;2.73;;;20.60;1.00;;;;;;5073995;28;21036;-69
2021/08/22 10:15:06;;;;;;;58.37;2.70;;;20.30;1.00;;;;;;5073925;28;20451;-69
2021/08/22 10:17:33;;;;;;;57.83;2.57;;;20.20;1.00;;;;;;5073998;28;20457;-69
2021/08/22 10:20:00;;;;;;;57.77;2.40;;;20.10;1.00;;;;;;5073674;28;20530;-69
2021/08/22 10:22:35;;;;;;;58.30;2.80;;;20.10;1.00;;;;;;5073609;28;20901;-70
2021/08/22 10:25:03;;;;;;;58.27;3.10;;;20.20;1.00;;;;;;5073975;28;20489;-69
2021/08/22 10:27:49;;;;;;;58.37;2.97;;;20.30;1.00;;;;;;5073773;28;20794;-70
2021/08/22 10:30:18;;;;;;;58.07;3.17;;;20.30;1.00;;;;;;5073475;28;20441;-69
2021/08/22 10:33:11;;;;;;;58.37;2.60;;;20.30;1.00;;;;;;5073468;28;20474;-70
2021/08/22 10:35:38;;;;;;;58.00;2.80;;;20.30;1.00;;;;;;5073806;28;20534;-69
2021/08/22 10:38:26;;;;;;;58.27;2.50;;;20.20;1.00;;;;;;5073729;28;20450;-69
2021/08/22 10:40:53;;;;;;;58.60;3.00;;;20.10;1.00;;;;;;5073124;28;20503;-70
2021/08/22 10:43:40;;;;;;;58.47;3.23;;;19.90;1.00;;;;;;5073408;28;20824;-72
2021/08/22 10:46:08;;;;;;;58.80;3.90;;;19.60;1.00;;;;;;5073470;28;20553;-72
2021/08/22 10:48:51;;;;;;;58.23;2.63;;;19.40;1.00;;;;;;5073375;28;20484;-72
2021/08/22 10:51:19;;;;;;;58.97;3.63;;;19.30;9.00;;;;;;5073402;28;20487;-72
2021/08/22 10:53:50;;;;;;;58.37;2.93;;;19.10;22.50;;;;;;5073509;28;20527;-72
2021/08/22 10:56:36;;;;;;;58.30;3.30;;;18.90;23.80;;;;;;5073464;28;20539;-72
2021/08/22 10:59:06;;;;;;;59.20;4.50;;;18.70;36.50;;;;;;5073122;28;20440;-72
2021/08/22 11:01:33;;;;;;;58.40;2.67;;;18.50;52.60;;;;;;5073016;28;20467;-72
2021/08/22 11:04:04;;;;;;;58.07;2.73;;;18.40;65.50;;;;;;5072817;28;20489;-72
2021/08/22 11:06:31;;;;;;;58.37;2.80;;;18.30;71.40;;;;;;5073148;28;20447;-72
2021/08/22 11:08:59;;;;;;;58.07;2.50;;;18.20;73.90;;;;;;5072801;28;20454;-72
2021/08/22 11:11:27;;;;;;;58.60;2.90;;;18.30;77.30;;;;;;5072597;28;21037;-72
2021/08/22 11:13:56;;;;;;;57.97;2.60;;;18.40;80.30;;;;;;5072890;28;20443;-72
2021/08/22 11:16:38;;;;;;;58.57;2.80;;;18.40;82.70;;;;;;5072629;28;20450;-72
2021/08/22 11:19:06;;;;;;;58.27;2.77;;;18.50;84.20;;;;;;5072757;28;20475;-71
2021/08/22 11:21:32;;;;;;;58.47;3.30;;;18.50;85.10;;;;;;5072720;28;20463;-73
2021/08/22 11:24:01;;;;;;;57.97;2.37;;;18.50;68.60;;;;;;5072566;28;20510;-72
2021/08/22 11:26:30;;;;;;;58.57;2.80;;;18.40;15.30;;;;;;5072521;28;20447;-73
2021/08/22 11:28:57;;;;;;;58.20;2.37;;;18.30;1.00;;;;;;5072440;28;20473;-72
2021/08/22 11:31:28;;;;;;;58.27;2.30;;;18.10;1.00;;;;;;5072147;28;20990;-72
2021/08/22 11:33:55;;;;;;;58.37;2.33;;;18.10;1.00;;;;;;5072640;28;20448;-72
2021/08/22 11:36:27;;;;;;;58.07;2.50;;;18.00;1.00;;;;;;5072446;28;20880;-72
2021/08/22 11:39:14;;;;;;;58.27;2.93;;;17.90;1.00;;;;;;5072627;28;20490;-72
2021/08/22 11:41:46;;;;;;;58.27;2.53;;;17.70;1.00;;;;;;5072510;28;20463;-72
2021/08/22 11:44:20;;;;;;;58.07;2.60;;;17.60;1.00;;;;;;5072210;28;20445;-72
2021/08/22 11:46:52;;;;;;;58.17;2.60;;;17.50;1.00;;;;;;5072376;28;20478;-72
2021/08/22 11:49:20;;;;;;;58.27;2.60;;;17.50;1.80;;;;;;5071811;28;20931;-72
2021/08/22 11:51:50;;;;;;;58.07;2.70;;;17.40;4.20;;;;;;5071913;28;20561;-73
2021/08/22 11:54:19;;;;;;;58.40;2.60;;;17.50;19.80;;;;;;5072284;28;20868;-72
2021/08/22 11:56:46;;;;;;;58.07;2.50;;;17.50;19.90;;;;;;5072314;28;20451;-72
2021/08/22 11:59:26;;;;;;;58.27;2.60;;;17.60;20.40;;;;;;5071943;28;20457;-72
2021/08/22 12:02:14;;;;;;;58.17;2.57;;;17.70;22.50;;;;;;5071942;28;20505;-72
2021/08/22 12:04:41;;;;;;;57.97;2.60;;;17.90;29.10;;;;;;5071910;28;20543;-72
2021/08/22 12:07:08;;;;;;;58.40;2.87;;;18.00;41.20;;;;;;5072098;28;20540;-72
2021/08/22 12:09:36;;;;;;;57.97;2.60;;;18.10;51.30;;;;;;5071798;28;20538;-71
2021/08/22 12:12:04;;;;;;;57.93;2.23;;;18.20;59.20;;;;;;5071836;28;20838;-72
2021/08/22 12:14:33;;;;;;;58.03;2.47;;;18.30;66.50;;;;;;5071911;28;20534;-71
2021/08/22 12:17:01;;;;;;;58.27;2.33;;;18.40;63.80;;;;;;5071701;28;20459;-72
2021/08/22 12:19:29;;;;;;;57.87;2.40;;;18.50;65.40;;;;;;5071128;28;20478;-72
2021/08/22 12:21:57;;;;;;;58.27;2.40;;;18.50;52.20;;;;;;5071701;28;20502;-72
2021/08/22 12:24:25;;;;;;;58.17;2.70;;;18.60;54.10;;;;;;5071687;28;20448;-72
2021/08/22 12:26:56;;;;;;;57.97;2.50;;;18.50;58.40;;;;;;5071696;28;20458;-72
2021/08/22 12:29:30;;;;;;;57.60;2.50;;;18.40;53.30;;;;;;5071410;28;20456;-72
2021/08/22 12:32:07;;;;;;;58.20;2.60;;;18.40;37.40;;;;;;5071599;28;20519;-71
2021/08/22 12:34:34;;;;;;;58.10;2.60;;;18.40;34.00;;;;;;5071931;28;20453;-72
2021/08/22 12:37:08;;;;;;;58.27;2.80;;;18.40;33.40;;;;;;5071683;28;20459;-71
2021/08/22 12:39:35;;;;;;;57.93;2.30;;;18.40;35.10;;;;;;5071394;28;20498;-72
2021/08/22 12:42:03;;;;;;;58.30;2.40;;;18.30;35.60;;;;;;5071946;28;21034;-73
2021/08/22 12:44:31;;;;;;;58.07;2.30;;;18.30;35.10;;;;;;5071698;28;20442;-72
2021/08/22 12:46:59;;;;;;;58.00;2.50;;;18.20;35.10;;;;;;5071626;28;20486;-72
2021/08/22 12:49:27;;;;;;;58.30;2.80;;;18.10;33.40;;;;;;5071160;28;20606;-72
2021/08/22 12:51:55;;;;;;;58.07;2.60;;;18.10;35.70;;;;;;5071652;28;20463;-72
2021/08/22 12:54:24;;;;;;;58.17;3.10;;;18.10;31.20;;;;;;5071660;28;20451;-72
2021/08/22 12:56:51;;;;;;;58.13;2.40;;;18.10;29.80;;;;;;5071639;28;20522;-72
2021/08/22 12:59:20;;;;;;;58.13;2.40;;;18.10;31.20;;;;;;5071498;28;20445;-72
2021/08/22 13:01:48;;;;;;;58.30;2.33;;;18.20;33.10;;;;;;5071419;28;20561;-72
2021/08/22 13:04:16;;;;;;;58.03;2.27;;;18.30;35.00;;;;;;5071340;28;20467;-75
2021/08/22 13:06:43;;;;;;;58.70;3.30;;;18.50;35.50;;;;;;5071164;28;20497;-72